RYR98XC EDDH-LIPZ

Flight info

Callsign RYR98XC
Flight time N/A
Altitude 35000
Route IDEKO8C/05 IDEKO N850 ROBEG/N0455F370 N850 XAROL/N0455F360 DCT BOMBI DCT GIGET DCT ABUKA/N0455F370 DCT TEDGO DCT BATUB/N0435F290 M738 ADOSA L612 ALBET
Aircraft B738/M-SDE2E3FGHIRWXY/LB1

Departure

Time 2026-05-06 13:44
Airport Hamburg Helmut Schmidt Airport (EDDH)

Arrival

Time N/A
Airport Venice Marco Polo Airport (LIPZ)
Time Latitude Longitude Altitude Speed Heading
2026-05-06 12:52 53.63075 10.00114 46 ft 0 kts 296°
2026-05-06 13:30 53.63070 10.00130 46 ft 2 kts 296°
2026-05-06 13:30 53.63063 10.00155 46 ft 2 kts 296°
2026-05-06 13:31 53.63057 10.00180 46 ft 2 kts 269°
2026-05-06 13:31 53.63057 10.00183 46 ft 0 kts 265°
2026-05-06 13:33 53.63055 10.00178 46 ft 1 kts 249°
2026-05-06 13:33 53.63030 10.00143 46 ft 10 kts 216°
2026-05-06 13:33 53.62959 10.00063 45 ft 14 kts 213°
2026-05-06 13:33 53.62922 10.00036 44 ft 2 kts 186°
2026-05-06 13:34 53.62884 10.00033 44 ft 9 kts 186°
2026-05-06 13:34 53.62829 9.99987 44 ft 12 kts 210°
2026-05-06 13:34 53.62752 9.99911 45 ft 13 kts 210°
2026-05-06 13:34 53.62675 9.99842 42 ft 12 kts 212°
2026-05-06 13:35 53.62632 9.99726 41 ft 12 kts 252°
2026-05-06 13:35 53.62620 9.99592 40 ft 11 kts 259°
2026-05-06 13:35 53.62606 9.99464 41 ft 11 kts 259°
2026-05-06 13:35 53.62592 9.99338 44 ft 11 kts 259°
2026-05-06 13:36 53.62578 9.99215 41 ft 10 kts 259°
2026-05-06 13:36 53.62563 9.99097 43 ft 10 kts 259°
2026-05-06 13:36 53.62550 9.98982 42 ft 10 kts 260°
2026-05-06 13:36 53.62537 9.98869 45 ft 10 kts 259°
2026-05-06 13:37 53.62526 9.98759 45 ft 9 kts 260°
2026-05-06 13:37 53.62512 9.98641 45 ft 11 kts 258°
2026-05-06 13:37 53.62495 9.98498 44 ft 14 kts 259°
2026-05-06 13:37 53.62474 9.98308 44 ft 20 kts 259°
2026-05-06 13:38 53.62414 9.98062 43 ft 25 kts 231°
2026-05-06 13:38 53.62314 9.97857 43 ft 22 kts 231°
2026-05-06 13:38 53.62222 9.97669 42 ft 16 kts 230°
2026-05-06 13:38 53.62179 9.97512 42 ft 15 kts 274°
2026-05-06 13:39 53.62202 9.97420 43 ft 0 kts 311°
2026-05-06 13:41 53.62228 9.97382 43 ft 13 kts 321°
2026-05-06 13:42 53.62287 9.97327 45 ft 0 kts
2026-05-06 13:42 53.62299 9.97337 45 ft 5 kts 29°
2026-05-06 13:42 53.62302 9.97344 45 ft 0 kts 46°
2026-05-06 13:43 53.62304 9.97346 45 ft 2 kts 46°
2026-05-06 13:43 53.62425 9.97588 44 ft 63 kts 50°
2026-05-06 13:44 53.62861 9.98469 47 ft 129 kts 50°
2026-05-06 13:44 53.63531 9.99829 362 ft 160 kts 50°
2026-05-06 13:44 53.64237 10.01217 1373 ft 155 kts 50°
2026-05-06 13:44 53.64922 10.02592 2251 ft 153 kts 51°
2026-05-06 13:45 53.65601 10.03982 3046 ft 153 kts 51°
2026-05-06 13:45 53.67045 10.06945 4100 ft 188 kts 52°
2026-05-06 13:45 53.67929 10.08722 4483 ft 205 kts 46°
2026-05-06 13:46 53.69195 10.09949 4952 ft 217 kts 18°
2026-05-06 13:46 53.70685 10.09974 5126 ft 222 kts 347°
2026-05-06 13:46 53.72035 10.08573 5328 ft 244 kts 313°
2026-05-06 13:46 53.72977 10.06058 5738 ft 268 kts 300°
2026-05-06 13:47 53.73856 10.03139 6262 ft 284 kts 298°
2026-05-06 13:47 53.74701 10.00127 7184 ft 283 kts 291°
2026-05-06 13:47 53.74938 9.96817 8011 ft 287 kts 262°
2026-05-06 13:47 53.74418 9.93587 8979 ft 286 kts 250°
2026-05-06 13:48 53.73654 9.90465 9592 ft 287 kts 246°
2026-05-06 13:48 53.72835 9.87365 9869 ft 291 kts 246°
2026-05-06 13:48 53.72005 9.84230 9875 ft 293 kts 246°
2026-05-06 13:48 53.71171 9.81042 10006 ft 304 kts 246°
2026-05-06 13:49 53.70293 9.77645 10206 ft 328 kts 246°
2026-05-06 13:49 53.69369 9.74044 10516 ft 345 kts 246°
2026-05-06 13:49 53.68409 9.70278 11164 ft 351 kts 246°
2026-05-06 13:49 53.67441 9.66487 11976 ft 353 kts 246°
2026-05-06 13:50 53.66430 9.62688 12707 ft 356 kts 240°
2026-05-06 13:50 53.64851 9.59483 13378 ft 357 kts 215°
2026-05-06 13:50 53.62665 9.57561 14128 ft 356 kts 196°
2026-05-06 13:50 53.60232 9.56799 14863 ft 355 kts 186°
2026-05-06 13:51 53.57768 9.56327 15479 ft 360 kts 185°
2026-05-06 13:51 53.55254 9.55878 16096 ft 363 kts 185°
2026-05-06 13:51 53.52747 9.55425 16885 ft 364 kts 186°
2026-05-06 13:51 53.50204 9.54950 17414 ft 371 kts 186°
2026-05-06 13:52 53.47630 9.54457 18089 ft 373 kts 186°
2026-05-06 13:52 53.45034 9.53952 18662 ft 375 kts 187°
2026-05-06 13:52 53.42463 9.53447 19150 ft 379 kts 187°
2026-05-06 13:52 53.39825 9.52928 19641 ft 383 kts 187°
2026-05-06 13:53 53.37167 9.52405 20149 ft 386 kts 187°
2026-05-06 13:53 53.34485 9.51878 20664 ft 389 kts 187°
2026-05-06 13:53 53.31777 9.51347 21172 ft 392 kts 187°
2026-05-06 13:53 53.29059 9.50812 21688 ft 395 kts 187°
2026-05-06 13:54 53.26315 9.50271 22186 ft 398 kts 187°
2026-05-06 13:54 53.23582 9.49733 22675 ft 401 kts 187°
2026-05-06 13:54 53.20758 9.49177 23151 ft 405 kts 187°
2026-05-06 13:54 53.17948 9.48625 23589 ft 408 kts 187°
2026-05-06 13:55 53.15123 9.48071 24037 ft 410 kts 187°
2026-05-06 13:55 53.12319 9.47522 24438 ft 412 kts 186°
2026-05-06 13:55 53.09462 9.46963 24830 ft 415 kts 186°
2026-05-06 13:55 53.06592 9.46402 25249 ft 417 kts 186°
2026-05-06 13:56 53.03698 9.45838 25619 ft 420 kts 186°
2026-05-06 13:56 53.00782 9.45269 26022 ft 422 kts 186°
2026-05-06 13:56 52.97851 9.44690 26390 ft 425 kts 186°
2026-05-06 13:56 52.94907 9.44072 26721 ft 428 kts 186°
2026-05-06 13:57 52.91954 9.43437 27089 ft 429 kts 186°
2026-05-06 13:57 52.88978 9.42794 27439 ft 432 kts 186°
2026-05-06 13:57 52.85994 9.42152 27717 ft 435 kts 186°
2026-05-06 13:57 52.82980 9.41508 28040 ft 437 kts 186°
2026-05-06 13:58 52.79955 9.40864 28368 ft 439 kts 186°
2026-05-06 13:58 52.77939 9.40437 28588 ft 440 kts 186°
2026-05-06 13:58 52.73895 9.39582 28992 ft 443 kts 186°
2026-05-06 13:58 52.70823 9.38933 29250 ft 446 kts 186°
2026-05-06 13:59 52.67731 9.38281 29547 ft 448 kts 186°
2026-05-06 13:59 52.65675 9.37848 29744 ft 449 kts 186°
2026-05-06 13:59 52.62567 9.37194 30047 ft 450 kts 186°
2026-05-06 13:59 52.59482 9.36464 30520 ft 446 kts 188°
2026-05-06 14:00 52.56425 9.35661 30988 ft 442 kts 189°
2026-05-06 14:00 52.53395 9.34844 31334 ft 442 kts 189°
2026-05-06 14:00 52.50362 9.34029 31614 ft 443 kts 189°
2026-05-06 14:00 52.47312 9.33221 31894 ft 443 kts 189°
2026-05-06 14:01 52.44277 9.32427 32256 ft 441 kts 189°
2026-05-06 14:01 52.41250 9.31642 32679 ft 438 kts 190°
2026-05-06 14:01 52.38254 9.30867 33075 ft 435 kts 190°
2026-05-06 14:01 52.35259 9.30094 33397 ft 434 kts 190°
2026-05-06 14:02 52.32278 9.29320 33740 ft 432 kts 191°
2026-05-06 14:02 52.29308 9.28543 34056 ft 430 kts 191°
2026-05-06 14:02 52.26355 9.27771 34268 ft 430 kts 191°
2026-05-06 14:02 52.23387 9.26997 34454 ft 431 kts 191°
2026-05-06 14:03 52.20413 9.26332 34656 ft 432 kts 188°
2026-05-06 14:03 52.17456 9.25812 34829 ft 433 kts 188°
2026-05-06 14:03 52.11450 9.24811 34811 ft 434 kts 188°
2026-05-06 14:04 52.05524 9.23748 34804 ft 430 kts 188°
2026-05-06 14:04 51.99631 9.22308 34804 ft 426 kts 192°
2026-05-06 14:05 51.93796 9.20673 34790 ft 425 kts 191°
2026-05-06 14:05 51.87963 9.19133 34793 ft 424 kts 191°
2026-05-06 14:06 51.82127 9.17832 34784 ft 426 kts 189°
2026-05-06 14:06 51.76241 9.16600 34785 ft 427 kts 189°
2026-05-06 14:07 51.70333 9.15342 34782 ft 429 kts 189°
2026-05-06 14:07 51.64400 9.14064 34778 ft 430 kts 189°
2026-05-06 14:08 51.58437 9.12879 34772 ft 433 kts 184°
2026-05-06 14:08 51.52390 9.13082 34768 ft 435 kts 180°
2026-05-06 14:09 51.46324 9.13459 34775 ft 435 kts 180°
2026-05-06 14:09 51.40283 9.13793 34765 ft 434 kts 180°
2026-05-06 14:10 51.34269 9.14087 34768 ft 430 kts 181°
2026-05-06 14:10 51.28306 9.14363 34764 ft 427 kts 181°
2026-05-06 14:11 51.22382 9.14633 34773 ft 424 kts 181°
2026-05-06 14:11 51.16525 9.14898 34766 ft 422 kts 181°
2026-05-06 14:12 51.10658 9.15165 34774 ft 421 kts 181°
2026-05-06 14:12 51.04796 9.15431 34777 ft 420 kts 181°
2026-05-06 14:13 50.98938 9.15695 34768 ft 421 kts 181°
2026-05-06 14:13 50.93071 9.15960 34769 ft 422 kts 181°
2026-05-06 14:14 50.87214 9.16223 34760 ft 424 kts 181°
2026-05-06 14:14 50.81304 9.16488 34752 ft 426 kts 181°
2026-05-06 14:15 50.75356 9.16755 34746 ft 427 kts 181°
2026-05-06 14:15 50.69398 9.17021 34742 ft 428 kts 181°
2026-05-06 14:16 50.63442 9.17287 34755 ft 428 kts 181°
2026-05-06 14:16 50.57519 9.17551 34751 ft 427 kts 181°
2026-05-06 14:17 50.51579 9.17815 34749 ft 426 kts 181°
2026-05-06 14:17 50.45654 9.18077 34748 ft 425 kts 181°
2026-05-06 14:18 50.39745 9.18338 34745 ft 423 kts 181°
2026-05-06 14:18 50.33865 9.18597 34750 ft 422 kts 181°
2026-05-06 14:19 50.28036 9.18853 34753 ft 421 kts 181°
2026-05-06 14:19 50.22190 9.19109 34751 ft 420 kts 181°
2026-05-06 14:20 50.16341 9.19365 34755 ft 419 kts 181°
2026-05-06 14:20 50.10502 9.19619 34762 ft 419 kts 181°
2026-05-06 14:21 50.04686 9.19871 34766 ft 420 kts 181°
2026-05-06 14:21 49.98832 9.20125 34761 ft 422 kts 181°
2026-05-06 14:22 49.92954 9.20379 34772 ft 423 kts 181°
2026-05-06 14:22 49.87100 9.20632 34773 ft 423 kts 181°
2026-05-06 14:23 49.81200 9.20886 34773 ft 424 kts 181°
2026-05-06 14:23 49.75301 9.21140 34781 ft 424 kts 181°
2026-05-06 14:24 49.69392 9.21394 34776 ft 424 kts 181°
2026-05-06 14:24 49.63498 9.21646 34779 ft 423 kts 181°
2026-05-06 14:25 49.57614 9.21897 34780 ft 422 kts 181°
2026-05-06 14:25 49.51749 9.22147 34778 ft 421 kts 181°
2026-05-06 14:26 49.45907 9.22395 34785 ft 419 kts 181°
2026-05-06 14:26 49.40125 9.22640 34782 ft 417 kts 182°
2026-05-06 14:27 49.34334 9.22885 34790 ft 415 kts 182°
2026-05-06 14:27 49.28557 9.23128 34784 ft 414 kts 182°
2026-05-06 14:28 49.22794 9.23370 34782 ft 412 kts 182°
2026-05-06 14:28 49.17098 9.23609 34788 ft 411 kts 182°
2026-05-06 14:29 49.11386 9.23848 34784 ft 410 kts 182°
2026-05-06 14:29 49.05686 9.24086 34788 ft 409 kts 182°
2026-05-06 14:30 49.00002 9.24323 34788 ft 408 kts 182°
2026-05-06 14:30 48.94366 9.24557 34793 ft 407 kts 182°
2026-05-06 14:31 48.88700 9.24792 34793 ft 407 kts 182°
2026-05-06 14:31 48.83026 9.25026 34799 ft 407 kts 182°
2026-05-06 14:32 48.77363 9.25259 34809 ft 410 kts 182°
2026-05-06 14:32 48.71658 9.25495 34801 ft 410 kts 182°
2026-05-06 14:33 48.65955 9.25730 34799 ft 410 kts 182°
2026-05-06 14:33 48.60298 9.26662 34794 ft 416 kts 170°
2026-05-06 14:34 48.54781 9.29445 34796 ft 419 kts 166°
2026-05-06 14:34 48.49271 9.32321 34802 ft 419 kts 166°
2026-05-06 14:35 48.43746 9.35166 34803 ft 422 kts 166°
2026-05-06 14:35 48.38185 9.38010 34788 ft 421 kts 166°
2026-05-06 14:36 48.32638 9.40840 34789 ft 420 kts 166°
2026-05-06 14:36 48.27115 9.43650 34787 ft 418 kts 166°
2026-05-06 14:37 48.21610 9.46445 34786 ft 416 kts 166°
2026-05-06 14:37 48.16169 9.49200 34787 ft 415 kts 166°
2026-05-06 14:38 48.10700 9.51965 34791 ft 414 kts 166°
2026-05-06 14:38 48.05235 9.54721 34798 ft 413 kts 167°
2026-05-06 14:39 48.00522 9.57845 34796 ft 422 kts 154°
2026-05-06 14:39 47.95709 9.62996 34823 ft 427 kts 150°
2026-05-06 14:40 47.90946 9.68203 34837 ft 427 kts 150°
2026-05-06 14:40 47.87297 9.72157 34838 ft 428 kts 150°
2026-05-06 14:41 47.82605 9.77210 34861 ft 429 kts 151°
2026-05-06 14:41 47.77751 9.82418 34849 ft 431 kts 151°
2026-05-06 14:42 47.72876 9.87636 34850 ft 432 kts 151°
2026-05-06 14:42 47.68026 9.92815 34846 ft 432 kts 151°
2026-05-06 14:43 47.63131 9.98030 34839 ft 433 kts 151°
2026-05-06 14:43 47.58230 10.03240 34850 ft 433 kts 151°
2026-05-06 14:44 47.54155 10.07562 34845 ft 434 kts 152°
2026-05-06 14:45 47.46001 10.16187 34831 ft 433 kts 152°
2026-05-06 14:45 47.41845 10.20390 34825 ft 433 kts 155°
2026-05-06 14:46 47.36708 10.24998 34830 ft 430 kts 156°
2026-05-06 14:46 47.31601 10.29617 34816 ft 430 kts 155°
2026-05-06 14:47 47.26550 10.34184 34829 ft 427 kts 156°
2026-05-06 14:47 47.21468 10.38760 34827 ft 424 kts 156°
2026-05-06 14:48 47.16476 10.43244 34830 ft 423 kts 156°
2026-05-06 14:48 47.11428 10.47772 34779 ft 425 kts 156°
2026-05-06 14:49 47.06387 10.52214 34806 ft 421 kts 160°
2026-05-06 14:49 47.00942 10.55144 34781 ft 416 kts 170°
2026-05-06 14:50 46.95385 10.57581 34832 ft 420 kts 170°
2026-05-06 14:50 46.89858 10.60069 34849 ft 410 kts 169°
2026-05-06 14:51 46.84388 10.62535 34833 ft 411 kts 170°
2026-05-06 14:51 46.78928 10.65116 34853 ft 414 kts 165°
2026-05-06 14:52 46.73651 10.68493 34842 ft 417 kts 163°
2026-05-06 14:52 46.68350 10.71991 34859 ft 418 kts 163°
2026-05-06 14:53 46.63175 10.75380 34774 ft 395 kts 164°
2026-05-06 14:53 46.60691 10.76994 34379 ft 387 kts 165°
2026-05-06 14:53 46.58218 10.78581 33472 ft 391 kts 165°
2026-05-06 14:53 46.55708 10.80178 32640 ft 396 kts 165°
2026-05-06 14:54 46.53199 10.81777 32149 ft 392 kts 165°
2026-05-06 14:54 46.50712 10.83366 31745 ft 388 kts 165°
2026-05-06 14:54 46.48244 10.84944 31328 ft 385 kts 165°
2026-05-06 14:54 46.45806 10.86501 30922 ft 382 kts 165°
2026-05-06 14:55 46.43382 10.88047 30526 ft 379 kts 166°
2026-05-06 14:55 46.41789 10.89061 30263 ft 376 kts 166°
2026-05-06 14:57 46.24488 11.00036 27192 ft 350 kts 165°